Time;durP1;ratioP1;P1;durP2;ratioP2;P2;SDS_P1;SDS_P2;PMS_P1;PMS_P2;Temp;Humidity;BMP_temperature;BMP_pressure;BME280_temperature;BME280_humidity;BME280_pressure;Samples;Min_cycle;Max_cycle;Signal;HPM_P1;HPM_P2
2022/02/25 00:04:07;;;;;;;6.13;3.08;;;-0.50;99.90;;;;;;21057370;28;20069;-58
2022/02/25 00:14:09;;;;;;;6.82;3.50;;;-0.60;99.90;;;;;;21058599;28;20078;-58
2022/02/25 00:24:12;;;;;;;6.43;2.92;;;-0.70;99.90;;;;;;21056744;28;20538;-57
2022/02/25 00:34:15;;;;;;;6.43;3.20;;;-0.80;99.90;;;;;;21056425;28;20032;-59
2022/02/25 00:44:17;;;;;;;11.05;5.15;;;-0.80;99.90;;;;;;21056345;28;20399;-58
2022/02/25 00:54:20;;;;;;;10.52;5.88;;;-0.70;99.90;;;;;;21055465;28;20487;-57
2022/02/25 01:04:23;;;;;;;12.00;5.13;;;-0.70;99.90;;;;;;21055050;28;20039;-57
2022/02/25 01:14:25;;;;;;;13.95;5.63;;;-0.60;99.90;;;;;;21043697;28;20070;-58
2022/02/25 01:24:28;;;;;;;12.23;5.03;;;-0.10;99.90;;;;;;21069217;28;20069;-57
2022/02/25 01:34:30;;;;;;;9.02;4.65;;;-0.30;99.90;;;;;;21068574;28;20044;-59
2022/02/25 01:44:37;;;;;;;7.40;3.42;;;-0.30;99.90;;;;;;21067635;28;20391;-57
2022/02/25 01:54:43;;;;;;;8.30;4.22;;;0.00;99.90;;;;;;21066693;28;20117;-59
2022/02/25 02:04:46;;;;;;;7.03;3.33;;;-0.10;99.90;;;;;;21066467;28;20165;-58
2022/02/25 02:14:49;;;;;;;5.47;2.28;;;-0.20;99.90;;;;;;21065170;28;20066;-59
2022/02/25 02:24:52;;;;;;;4.70;1.98;;;-0.70;99.90;;;;;;21063867;28;20093;-57
2022/02/25 02:34:54;;;;;;;3.38;1.45;;;-1.00;99.90;;;;;;21063872;28;20032;-58
2022/02/25 02:44:57;;;;;;;4.95;1.65;;;-1.10;99.90;;;;;;21064711;28;20036;-57
2022/02/25 02:55:00;;;;;;;4.80;2.03;;;-1.10;99.90;;;;;;21062366;28;20479;-58
2022/02/25 03:05:05;;;;;;;3.92;1.63;;;-1.10;99.90;;;;;;21062263;28;20028;-57
2022/02/25 03:15:09;;;;;;;3.85;1.75;;;-1.00;99.90;;;;;;21060827;28;20040;-59
2022/02/25 03:25:13;;;;;;;4.10;1.80;;;-1.10;99.90;;;;;;21060214;28;20036;-57
2022/02/25 03:35:16;;;;;;;5.78;1.73;;;-1.00;99.90;;;;;;21059322;28;20043;-59
2022/02/25 03:45:19;;;;;;;5.22;1.60;;;-1.00;99.90;;;;;;21060020;28;20032;-58
2022/02/25 03:55:21;;;;;;;5.07;2.10;;;-1.00;99.90;;;;;;21058270;28;20101;-59
2022/02/25 04:05:25;;;;;;;4.72;1.80;;;-1.00;99.90;;;;;;21058008;28;20069;-59
2022/02/25 04:15:27;;;;;;;3.55;1.55;;;-0.80;99.90;;;;;;21057718;28;20571;-59
2022/02/25 04:25:30;;;;;;;4.20;1.60;;;-0.60;99.90;;;;;;21058278;28;20439;-58
2022/02/25 04:35:33;;;;;;;4.63;2.00;;;-0.70;99.90;;;;;;21058117;28;20032;-58
2022/02/25 04:45:36;;;;;;;4.18;1.60;;;-0.90;99.90;;;;;;21056374;28;20492;-58
2022/02/25 04:55:39;;;;;;;3.33;1.90;;;-0.90;99.90;;;;;;21071925;28;20044;-59
2022/02/25 05:05:42;;;;;;;5.05;1.90;;;-0.90;99.90;;;;;;21073167;28;20093;-58
2022/02/25 05:26:08;;;;;;;4.47;1.77;;;-0.60;99.90;;;;;;21054189;28;20361;-57
2022/02/25 05:36:11;;;;;;;3.58;1.50;;;-0.60;99.90;;;;;;21070003;28;20543;-57
2022/02/25 05:46:14;;;;;;;3.03;1.40;;;-0.60;99.90;;;;;;21067912;28;20039;-58
2022/02/25 05:56:17;;;;;;;2.70;1.13;;;-0.60;99.60;;;;;;21068977;28;20048;-58
2022/02/25 06:06:21;;;;;;;4.20;1.50;;;-0.70;99.90;;;;;;21066422;28;20036;-59
2022/02/25 06:16:23;;;;;;;3.20;1.52;;;-0.70;99.90;;;;;;21065528;28;20105;-59
2022/02/25 06:26:27;;;;;;;3.53;1.02;;;-0.50;99.90;;;;;;21064619;28;20487;-59
2022/02/25 06:36:30;;;;;;;3.03;1.45;;;-0.20;99.60;;;;;;21055799;28;20113;-58
2022/02/25 06:46:33;;;;;;;2.88;1.08;;;-0.20;99.00;;;;;;21064399;28;20036;-57
2022/02/25 06:56:35;;;;;;;3.53;1.35;;;-0.20;99.30;;;;;;21062419;28;20110;-59
2022/02/25 07:06:38;;;;;;;3.08;1.30;;;-0.10;99.90;;;;;;21062241;28;20108;-58
2022/02/25 07:16:41;;;;;;;3.58;1.35;;;0.10;98.70;;;;;;21060415;28;20032;-56
2022/02/25 07:26:43;;;;;;;4.40;1.67;;;0.30;99.50;;;;;;21061647;28;20093;-59
2022/02/25 07:36:46;;;;;;;5.32;2.47;;;0.70;99.20;;;;;;21059590;28;20101;-57
2022/02/25 07:46:48;;;;;;;5.38;2.13;;;1.50;98.00;;;;;;21060189;28;20418;-57
2022/02/25 07:56:51;;;;;;;5.28;2.08;;;2.50;97.90;;;;;;21058154;28;20045;-59
2022/02/25 08:06:54;;;;;;;6.63;2.92;;;3.40;96.80;;;;;;21058352;28;20077;-58
2022/02/25 08:16:59;;;;;;;10.18;4.50;;;4.60;94.10;;;;;;21058594;28;20032;-58
2022/02/25 08:27:02;;;;;;;11.75;5.45;;;5.70;93.80;;;;;;21068095;28;20069;-58
2022/02/25 08:37:04;;;;;;;11.15;5.72;;;6.40;94.30;;;;;;21073818;28;20031;-59
2022/02/25 08:47:07;;;;;;;11.43;5.60;;;6.80;92.20;;;;;;21072859;28;20036;-60
2022/02/25 08:57:10;;;;;;;9.48;4.32;;;7.40;92.60;;;;;;21072953;28;20476;-59
2022/02/25 09:07:13;;;;;;;9.27;4.35;;;7.80;90.20;;;;;;21071199;28;20094;-60
2022/02/25 09:17:16;;;;;;;8.00;4.55;;;8.00;84.40;;;;;;21071246;28;20487;-58
2022/02/25 09:27:19;;;;;;;6.55;3.42;;;7.30;85.90;;;;;;21071219;28;20032;-57
2022/02/25 09:37:22;;;;;;;6.68;3.55;;;7.70;82.60;;;;;;21068741;28;20368;-59
2022/02/25 09:47:27;;;;;;;5.43;2.47;;;8.20;78.80;;;;;;21068658;28;20093;-59
2022/02/25 09:57:29;;;;;;;6.72;2.63;;;8.00;77.90;;;;;;21028193;28;20564;-58
2022/02/25 10:07:33;;;;;;;4.70;2.08;;;7.90;76.90;;;;;;21066547;28;20035;-57
2022/02/25 10:17:37;;;;;;;4.95;1.98;;;8.10;77.00;;;;;;21066082;28;20040;-59
2022/02/25 10:27:45;;;;;;;5.78;2.00;;;8.30;75.30;;;;;;21065047;28;20453;-58
2022/02/25 10:38:04;;;;;;;7.43;3.53;;;8.40;75.90;;;;;;21064915;28;20040;-57
2022/02/25 10:48:12;;;;;;;2.42;1.00;;;9.10;82.00;;;;;;21046650;28;20032;-58
2022/02/25 10:58:16;;;;;;;5.93;3.28;;;8.70;72.50;;;;;;21046456;28;20109;-57
2022/02/25 11:08:20;;;;;;;2.30;1.10;;;8.80;78.20;;;;;;21061618;28;20089;-57
2022/02/25 11:18:23;;;;;;;11.48;5.85;;;8.80;73.30;;;;;;21061050;28;20055;-56
2022/02/25 11:28:27;;;;;;;12.93;7.10;;;9.20;86.90;;;;;;21060960;28;20028;-59
2022/02/25 11:38:40;;;;;;;12.95;6.55;;;9.80;88.00;;;;;;21060285;28;20548;-58
2022/02/25 11:48:49;;;;;;;16.25;8.00;;;10.00;87.40;;;;;;21058658;28;20032;-56
2022/02/25 11:58:52;;;;;;;15.32;8.65;;;10.40;88.60;;;;;;21058410;28;20039;-58
2022/02/25 12:09:00;;;;;;;12.95;7.10;;;10.20;89.00;;;;;;21058767;28;20036;-58
2022/02/25 12:19:09;;;;;;;18.25;10.55;;;10.10;86.00;;;;;;21031273;28;20478;-58
2022/02/25 12:29:18;;;;;;;19.17;11.13;;;10.30;88.20;;;;;;21056899;28;20545;-58
2022/02/25 12:39:31;;;;;;;20.73;12.27;;;10.30;88.50;;;;;;21056630;28;20089;-59
2022/02/25 12:49:39;;;;;;;22.70;12.55;;;10.30;91.10;;;;;;21056023;28;20443;-58
2022/02/25 12:59:52;;;;;;;20.25;12.73;;;10.70;91.50;;;;;;21038878;28;20116;-59
2022/02/25 13:09:55;;;;;;;29.33;17.45;;;10.70;91.70;;;;;;21061281;28;20058;-57
2022/02/25 13:20:01;;;;;;;23.83;13.65;;;10.60;88.00;;;;;;21070452;28;20396;-57
2022/02/25 13:30:25;;;;;;;23.90;14.82;;;10.20;92.40;;;;;;21070338;28;20105;-59
2022/02/25 13:40:41;;;;;;;26.55;15.68;;;10.30;92.10;;;;;;21053918;28;20097;-57
2022/02/25 14:01:26;;;;;;;28.45;15.38;;;10.10;92.70;;;;;;20742252;28;20123;-55
2022/02/25 14:11:38;;;;;;;27.25;15.73;;;9.50;93.00;;;;;;20758448;28;20084;-55
2022/02/25 14:21:43;;;;;;;28.75;17.10;;;9.00;92.70;;;;;;20727360;28;20074;-56
2022/02/25 14:31:46;;;;;;;27.83;17.10;;;8.80;94.10;;;;;;20813557;28;20047;-55
2022/02/25 14:41:48;;;;;;;27.75;16.40;;;7.60;93.80;;;;;;21063840;28;20509;-54
2022/02/25 14:51:51;;;;;;;29.75;16.77;;;7.10;95.50;;;;;;21053313;28;20468;-61
2022/02/25 15:01:53;;;;;;;30.20;16.02;;;7.10;95.20;;;;;;21067713;28;20097;-70
2022/02/25 15:11:56;;;;;;;35.22;20.00;;;7.20;95.00;;;;;;21066931;28;20036;-68
2022/02/25 15:22:01;;;;;;;36.20;20.85;;;7.40;97.30;;;;;;21066081;28;20036;-65
2022/02/25 15:32:04;;;;;;;35.00;20.58;;;7.10;97.40;;;;;;21062227;28;20054;-58
2022/02/25 15:42:08;;;;;;;5.53;3.08;;;6.70;98.30;;;;;;21063318;28;20496;-60
2022/02/25 15:52:11;;;;;;;5.10;2.60;;;6.10;90.50;;;;;;21006263;28;20048;-62
2022/02/25 16:02:14;;;;;;;4.82;2.72;;;5.40;90.90;;;;;;20979639;28;20036;-49
2022/02/25 16:12:16;;;;;;;4.55;1.67;;;5.10;90.70;;;;;;20976575;28;20041;-62
2022/02/25 16:22:19;;;;;;;2.42;1.30;;;4.50;89.50;;;;;;21009095;28;20036;-60
2022/02/25 16:32:22;;;;;;;4.45;1.67;;;3.90;90.20;;;;;;21032394;28;20044;-56
2022/02/25 16:42:26;;;;;;;3.55;1.98;;;3.80;82.10;;;;;;20990636;28;20037;-56
2022/02/25 16:52:29;;;;;;;0.85;0.20;;;3.80;82.00;;;;;;20993595;28;20185;-55
2022/02/25 17:02:32;;;;;;;0.77;0.25;;;3.70;78.10;;;;;;21049639;28;20402;-54
2022/02/25 17:12:36;;;;;;;0.98;0.20;;;3.00;89.50;;;;;;21075522;28;20040;-56
2022/02/25 17:22:39;;;;;;;1.48;0.40;;;2.10;96.10;;;;;;21074096;28;20559;-58
2022/02/25 17:32:42;;;;;;;0.10;0.10;;;0.80;97.30;;;;;;21074893;28;20090;-56
2022/02/25 17:42:45;;;;;;;0.20;0.10;;;0.80;91.20;;;;;;21072534;28;20085;-57
2022/02/25 17:52:48;;;;;;;0.40;0.00;;;1.60;82.60;;;;;;21071422;28;20048;-58
2022/02/25 18:02:51;;;;;;;0.00;0.00;;;1.90;68.10;;;;;;21070866;28;20048;-58
2022/02/25 18:12:54;;;;;;;0.00;0.00;;;2.30;58.20;;;;;;21070330;28;20082;-58
2022/02/25 18:22:59;;;;;;;0.00;0.00;;;2.20;58.70;;;;;;21052809;28;20036;-58
2022/02/25 18:33:02;;;;;;;0.20;0.00;;;2.00;55.30;;;;;;21068907;28;20028;-58
2022/02/25 18:43:05;;;;;;;0.00;0.00;;;1.80;55.50;;;;;;21051032;28;20040;-54
2022/02/25 18:53:07;;;;;;;0.00;0.00;;;1.70;54.20;;;;;;21067589;28;20109;-58
2022/02/25 19:03:11;;;;;;;0.05;0.00;;;1.60;54.20;;;;;;21067415;28;20071;-59
2022/02/25 19:13:14;;;;;;;0.40;0.00;;;1.40;56.30;;;;;;21064729;28;20039;-57
2022/02/25 19:23:17;;;;;;;0.55;0.00;;;1.20;55.20;;;;;;21065399;28;20070;-54
2022/02/25 19:33:20;;;;;;;2.78;0.10;;;1.10;56.10;;;;;;21063867;28;20093;-57
2022/02/25 19:43:23;;;;;;;0.30;0.00;;;0.90;55.80;;;;;;21063472;28;20549;-57
2022/02/25 19:53:26;;;;;;;0.90;0.10;;;0.70;57.80;;;;;;21062878;28;20044;-58
2022/02/25 20:03:29;;;;;;;0.88;0.17;;;0.40;57.70;;;;;;21062548;28;20101;-57
2022/02/25 20:13:33;;;;;;;0.38;0.38;;;0.40;58.00;;;;;;21061966;28;20085;-57
2022/02/25 20:23:36;;;;;;;0.10;0.00;;;0.40;56.70;;;;;;21075107;28;20467;-53
2022/02/25 20:33:40;;;;;;;0.10;0.00;;;0.30;56.80;;;;;;21078805;28;20275;-54
2022/02/25 20:43:42;;;;;;;0.57;0.08;;;0.10;57.20;;;;;;21079597;28;20036;-56
2022/02/25 20:53:45;;;;;;;0.13;0.00;;;0.10;58.00;;;;;;21077264;28;20048;-53
2022/02/25 21:03:47;;;;;;;0.60;0.00;;;0.00;57.10;;;;;;21077525;28;20446;-56
2022/02/25 21:13:50;;;;;;;0.00;0.00;;;0.00;57.70;;;;;;21059022;28;20040;-52
2022/02/25 21:23:53;;;;;;;0.03;0.00;;;0.00;58.10;;;;;;21074690;28;20619;-57
2022/02/25 21:33:57;;;;;;;0.25;0.00;;;0.00;59.10;;;;;;21073007;28;20036;-53
2022/02/25 21:44:00;;;;;;;0.17;0.00;;;0.00;59.40;;;;;;21073181;28;20035;-53
2022/02/25 21:54:03;;;;;;;0.55;0.10;;;0.00;58.20;;;;;;21071766;28;20548;-57
2022/02/25 22:04:05;;;;;;;0.70;0.00;;;-0.20;58.20;;;;;;21071352;28;20085;-53
2022/02/25 22:14:08;;;;;;;0.00;0.00;;;-0.30;58.60;;;;;;20977450;28;20044;-58
2022/02/25 22:24:10;;;;;;;0.00;0.00;;;-0.30;59.00;;;;;;20959852;28;20044;-56
2022/02/25 22:34:13;;;;;;;1.70;0.15;;;-0.20;57.80;;;;;;20901790;28;20040;-58
2022/02/25 22:44:18;;;;;;;0.40;0.13;;;-0.20;59.10;;;;;;20874549;28;20558;-57
2022/02/25 23:15:03;;;;;;;0.43;0.10;;;-0.60;60.80;;;;;;20982468;28;20113;-56
2022/02/25 23:25:06;;;;;;;1.00;0.15;;;-0.70;60.40;;;;;;20964159;28;20032;-57
2022/02/25 23:35:09;;;;;;;0.95;0.10;;;-0.90;63.60;;;;;;21027856;28;20483;-56
2022/02/25 23:45:13;;;;;;;0.10;0.00;;;-1.00;63.00;;;;;;21063828;28;20388;-57
2022/02/25 23:55:16;;;;;;;0.93;0.00;;;-1.00;62.00;;;;;;21062368;28;20483;-57
